sensor_id;sensor_type;location;lat;lon;timestamp;pressure;altitude;pressure_sealevel;temperature;humidity
64551;BME280;74341;44.510;-123.270;2024-01-11T00:02:22;100386.34;;;3.09;100.00
64551;BME280;74341;44.510;-123.270;2024-01-11T00:04:50;100386.88;;;3.03;100.00
64551;BME280;74341;44.510;-123.270;2024-01-11T00:07:16;100391.81;;;2.98;100.00
64551;BME280;74341;44.510;-123.270;2024-01-11T00:09:43;100397.78;;;2.92;100.00
64551;BME280;74341;44.510;-123.270;2024-01-11T00:12:09;100402.84;;;2.85;100.00
64551;BME280;74341;44.510;-123.270;2024-01-11T00:14:36;100397.13;;;2.78;100.00
64551;BME280;74341;44.510;-123.270;2024-01-11T00:17:02;100394.97;;;2.72;100.00
64551;BME280;74341;44.510;-123.270;2024-01-11T00:19:28;100393.66;;;2.66;100.00
64551;BME280;74341;44.510;-123.270;2024-01-11T00:21:55;100401.31;;;2.61;100.00
64551;BME280;74341;44.510;-123.270;2024-01-11T00:24:21;100402.53;;;2.57;100.00
64551;BME280;74341;44.510;-123.270;2024-01-11T00:26:48;100403.66;;;2.55;100.00
64551;BME280;74341;44.510;-123.270;2024-01-11T00:29:14;100403.44;;;2.46;100.00
64551;BME280;74341;44.510;-123.270;2024-01-11T00:31:40;100403.28;;;2.38;100.00
64551;BME280;74341;44.510;-123.270;2024-01-11T00:34:07;100396.28;;;2.36;100.00
64551;BME280;74341;44.510;-123.270;2024-01-11T00:36:34;100401.81;;;2.34;100.00
64551;BME280;74341;44.510;-123.270;2024-01-11T00:39:00;100404.03;;;2.29;100.00
64551;BME280;74341;44.510;-123.270;2024-01-11T00:41:27;100406.53;;;2.21;100.00
64551;BME280;74341;44.510;-123.270;2024-01-11T00:43:53;100404.88;;;2.08;100.00
64551;BME280;74341;44.510;-123.270;2024-01-11T00:46:19;100410.44;;;1.96;100.00
64551;BME280;74341;44.510;-123.270;2024-01-11T00:48:46;100418.44;;;1.86;100.00
64551;BME280;74341;44.510;-123.270;2024-01-11T00:51:12;100411.00;;;1.78;100.00
64551;BME280;74341;44.510;-123.270;2024-01-11T00:53:38;100420.44;;;1.73;100.00
64551;BME280;74341;44.510;-123.270;2024-01-11T00:56:05;100418.09;;;1.68;100.00
64551;BME280;74341;44.510;-123.270;2024-01-11T00:58:32;100422.06;;;1.64;100.00
64551;BME280;74341;44.510;-123.270;2024-01-11T01:00:58;100416.19;;;1.59;100.00
64551;BME280;74341;44.510;-123.270;2024-01-11T01:03:24;100429.66;;;1.59;100.00
64551;BME280;74341;44.510;-123.270;2024-01-11T01:05:50;100433.19;;;1.59;100.00
64551;BME280;74341;44.510;-123.270;2024-01-11T01:08:17;100434.19;;;1.58;100.00
64551;BME280;74341;44.510;-123.270;2024-01-11T01:10:43;100429.03;;;1.55;100.00
64551;BME280;74341;44.510;-123.270;2024-01-11T01:13:09;100426.59;;;1.52;100.00
64551;BME280;74341;44.510;-123.270;2024-01-11T01:15:36;100425.75;;;1.51;100.00
64551;BME280;74341;44.510;-123.270;2024-01-11T01:18:02;100432.81;;;1.52;100.00
64551;BME280;74341;44.510;-123.270;2024-01-11T01:20:29;100430.13;;;1.52;100.00
64551;BME280;74341;44.510;-123.270;2024-01-11T01:22:55;100431.84;;;1.54;100.00
64551;BME280;74341;44.510;-123.270;2024-01-11T01:25:21;100430.88;;;1.55;100.00
64551;BME280;74341;44.510;-123.270;2024-01-11T01:27:48;100432.59;;;1.56;100.00
64551;BME280;74341;44.510;-123.270;2024-01-11T01:30:14;100436.13;;;1.56;100.00
64551;BME280;74341;44.510;-123.270;2024-01-11T01:32:41;100433.44;;;1.56;100.00
64551;BME280;74341;44.510;-123.270;2024-01-11T01:35:07;100428.91;;;1.57;100.00
64551;BME280;74341;44.510;-123.270;2024-01-11T01:37:34;100440.53;;;1.57;100.00
64551;BME280;74341;44.510;-123.270;2024-01-11T01:40:00;100435.16;;;1.57;100.00
64551;BME280;74341;44.510;-123.270;2024-01-11T01:42:26;100441.63;;;1.66;100.00
64551;BME280;74341;44.510;-123.270;2024-01-11T01:44:53;100442.84;;;1.73;100.00
64551;BME280;74341;44.510;-123.270;2024-01-11T01:47:19;100445.03;;;1.79;100.00
64551;BME280;74341;44.510;-123.270;2024-01-11T01:49:47;100448.09;;;1.86;100.00
64551;BME280;74341;44.510;-123.270;2024-01-11T01:52:15;100453.22;;;1.89;100.00
64551;BME280;74341;44.510;-123.270;2024-01-11T01:54:42;100446.22;;;1.98;100.00
64551;BME280;74341;44.510;-123.270;2024-01-11T01:57:10;100451.97;;;2.04;100.00
64551;BME280;74341;44.510;-123.270;2024-01-11T01:59:38;100457.38;;;2.04;100.00
64551;BME280;74341;44.510;-123.270;2024-01-11T02:02:05;100458.56;;;2.00;100.00
64551;BME280;74341;44.510;-123.270;2024-01-11T02:04:31;100462.28;;;1.99;100.00
64551;BME280;74341;44.510;-123.270;2024-01-11T02:06:58;100473.91;;;2.00;100.00
64551;BME280;74341;44.510;-123.270;2024-01-11T02:09:25;100473.19;;;1.98;100.00
64551;BME280;74341;44.510;-123.270;2024-01-11T02:11:52;100475.75;;;1.99;100.00
64551;BME280;74341;44.510;-123.270;2024-01-11T02:14:19;100481.03;;;2.01;100.00
64551;BME280;74341;44.510;-123.270;2024-01-11T02:16:46;100484.44;;;2.03;100.00
64551;BME280;74341;44.510;-123.270;2024-01-11T02:19:13;100487.03;;;2.04;100.00
64551;BME280;74341;44.510;-123.270;2024-01-11T02:21:43;100484.06;;;2.07;100.00
64551;BME280;74341;44.510;-123.270;2024-01-11T02:24:10;100492.03;;;2.09;100.00
64551;BME280;74341;44.510;-123.270;2024-01-11T02:26:37;100500.72;;;2.13;100.00
64551;BME280;74341;44.510;-123.270;2024-01-11T02:29:23;100500.47;;;2.16;100.00
64551;BME280;74341;44.510;-123.270;2024-01-11T02:31:50;100509.16;;;2.19;100.00
64551;BME280;74341;44.510;-123.270;2024-01-11T02:34:16;100514.31;;;2.22;100.00
64551;BME280;74341;44.510;-123.270;2024-01-11T02:36:44;100523.72;;;2.28;100.00
64551;BME280;74341;44.510;-123.270;2024-01-11T02:39:12;100528.88;;;2.31;100.00
64551;BME280;74341;44.510;-123.270;2024-01-11T02:41:40;100534.00;;;2.34;100.00
64551;BME280;74341;44.510;-123.270;2024-01-11T02:44:07;100534.47;;;2.39;100.00
64551;BME280;74341;44.510;-123.270;2024-01-11T02:46:33;100532.63;;;2.40;100.00
64551;BME280;74341;44.510;-123.270;2024-01-11T02:48:59;100537.06;;;2.41;100.00
64551;BME280;74341;44.510;-123.270;2024-01-11T02:51:26;100539.75;;;2.41;100.00
64551;BME280;74341;44.510;-123.270;2024-01-11T02:53:52;100542.44;;;2.41;100.00
64551;BME280;74341;44.510;-123.270;2024-01-11T02:56:19;100543.41;;;2.40;100.00
64551;BME280;74341;44.510;-123.270;2024-01-11T02:58:45;100546.00;;;2.41;100.00
64551;BME280;74341;44.510;-123.270;2024-01-11T03:01:11;100550.66;;;2.39;100.00
64551;BME280;74341;44.510;-123.270;2024-01-11T03:03:37;100549.94;;;2.37;100.00
64551;BME280;74341;44.510;-123.270;2024-01-11T03:06:04;100574.22;;;2.37;100.00
64551;BME280;74341;44.510;-123.270;2024-01-11T03:08:31;100571.53;;;2.37;100.00
64551;BME280;74341;44.510;-123.270;2024-01-11T03:10:57;100574.34;;;2.36;100.00
64551;BME280;74341;44.510;-123.270;2024-01-11T03:13:26;100566.13;;;2.37;100.00
64551;BME280;74341;44.510;-123.270;2024-01-11T03:15:52;100563.81;;;2.33;100.00
64551;BME280;74341;44.510;-123.270;2024-01-11T03:18:18;100560.50;;;2.29;100.00
64551;BME280;74341;44.510;-123.270;2024-01-11T03:20:44;100570.69;;;2.25;100.00
64551;BME280;74341;44.510;-123.270;2024-01-11T03:23:13;100567.25;;;2.23;100.00
64551;BME280;74341;44.510;-123.270;2024-01-11T03:25:39;100574.50;;;2.23;100.00
64551;BME280;74341;44.510;-123.270;2024-01-11T03:28:05;100572.94;;;2.20;100.00
64551;BME280;74341;44.510;-123.270;2024-01-11T03:30:32;100587.38;;;2.19;100.00
64551;BME280;74341;44.510;-123.270;2024-01-11T03:32:58;100598.19;;;2.19;100.00
64551;BME280;74341;44.510;-123.270;2024-01-11T03:35:25;100589.13;;;2.20;100.00
64551;BME280;74341;44.510;-123.270;2024-01-11T03:37:51;100593.50;;;2.21;100.00
64551;BME280;74341;44.510;-123.270;2024-01-11T03:40:18;100583.84;;;2.19;100.00
64551;BME280;74341;44.510;-123.270;2024-01-11T03:42:44;100589.34;;;2.17;100.00
64551;BME280;74341;44.510;-123.270;2024-01-11T03:45:11;100594.03;;;2.15;100.00
64551;BME280;74341;44.510;-123.270;2024-01-11T03:47:37;100604.06;;;2.13;100.00
64551;BME280;74341;44.510;-123.270;2024-01-11T03:50:04;100603.22;;;2.13;100.00
64551;BME280;74341;44.510;-123.270;2024-01-11T03:52:30;100613.03;;;2.14;100.00
64551;BME280;74341;44.510;-123.270;2024-01-11T03:54:57;100610.94;;;2.17;100.00
64551;BME280;74341;44.510;-123.270;2024-01-11T03:57:23;100618.03;;;2.18;100.00
64551;BME280;74341;44.510;-123.270;2024-01-11T03:59:49;100620.72;;;2.18;100.00
64551;BME280;74341;44.510;-123.270;2024-01-11T04:02:16;100629.69;;;2.19;100.00
64551;BME280;74341;44.510;-123.270;2024-01-11T04:04:42;100626.88;;;2.20;100.00
64551;BME280;74341;44.510;-123.270;2024-01-11T04:07:08;100631.28;;;2.21;100.00
64551;BME280;74341;44.510;-123.270;2024-01-11T04:09:37;100629.59;;;2.20;100.00
64551;BME280;74341;44.510;-123.270;2024-01-11T04:12:04;100641.34;;;2.19;100.00
64551;BME280;74341;44.510;-123.270;2024-01-11T04:14:31;100634.34;;;2.17;100.00
64551;BME280;74341;44.510;-123.270;2024-01-11T04:16:58;100622.69;;;2.16;100.00
64551;BME280;74341;44.510;-123.270;2024-01-11T04:19:24;100626.63;;;2.12;100.00
64551;BME280;74341;44.510;-123.270;2024-01-11T04:21:53;100640.34;;;2.09;100.00
64551;BME280;74341;44.510;-123.270;2024-01-11T04:24:20;100644.16;;;2.06;100.00
64551;BME280;74341;44.510;-123.270;2024-01-11T04:26:46;100638.91;;;2.05;100.00
64551;BME280;74341;44.510;-123.270;2024-01-11T04:29:12;100646.38;;;2.01;100.00
64551;BME280;74341;44.510;-123.270;2024-01-11T04:31:39;100646.50;;;2.00;100.00
64551;BME280;74341;44.510;-123.270;2024-01-11T04:34:05;100651.16;;;1.98;100.00
64551;BME280;74341;44.510;-123.270;2024-01-11T04:36:31;100653.00;;;1.97;100.00
64551;BME280;74341;44.510;-123.270;2024-01-11T04:38:58;100658.41;;;1.97;100.00
64551;BME280;74341;44.510;-123.270;2024-01-11T04:41:24;100660.09;;;1.98;100.00
64551;BME280;74341;44.510;-123.270;2024-01-11T04:43:51;100667.22;;;1.99;100.00
64551;BME280;74341;44.510;-123.270;2024-01-11T04:46:22;100670.75;;;2.00;100.00
64551;BME280;74341;44.510;-123.270;2024-01-11T04:48:49;100671.59;;;2.00;100.00
64551;BME280;74341;44.510;-123.270;2024-01-11T04:51:16;100668.06;;;2.00;100.00
64551;BME280;74341;44.510;-123.270;2024-01-11T04:53:43;100665.38;;;2.00;100.00
64551;BME280;74341;44.510;-123.270;2024-01-11T04:56:11;100668.78;;;2.02;100.00
64551;BME280;74341;44.510;-123.270;2024-01-11T04:58:41;100669.66;;;2.02;100.00
64551;BME280;74341;44.510;-123.270;2024-01-11T05:01:12;100672.34;;;2.02;100.00
64551;BME280;74341;44.510;-123.270;2024-01-11T05:03:39;100670.53;;;2.03;100.00
64551;BME280;74341;44.510;-123.270;2024-01-11T05:06:06;100679.47;;;2.03;100.00
64551;BME280;74341;44.510;-123.270;2024-01-11T05:08:32;100680.59;;;2.01;100.00
64551;BME280;74341;44.510;-123.270;2024-01-11T05:10:59;100677.00;;;2.00;100.00
64551;BME280;74341;44.510;-123.270;2024-01-11T05:13:25;100678.00;;;1.99;100.00
64551;BME280;74341;44.510;-123.270;2024-01-11T05:15:52;100678.25;;;1.96;100.00
64551;BME280;74341;44.510;-123.270;2024-01-11T05:18:18;100681.03;;;1.95;100.00
64551;BME280;74341;44.510;-123.270;2024-01-11T05:20:45;100678.97;;;1.87;100.00
64551;BME280;74341;44.510;-123.270;2024-01-11T05:23:11;100694.75;;;1.80;100.00
64551;BME280;74341;44.510;-123.270;2024-01-11T05:25:37;100694.25;;;1.75;100.00
64551;BME280;74341;44.510;-123.270;2024-01-11T05:28:04;100696.44;;;1.70;100.00
64551;BME280;74341;44.510;-123.270;2024-01-11T05:30:30;100704.03;;;1.65;100.00
64551;BME280;74341;44.510;-123.270;2024-01-11T05:32:57;100692.63;;;1.61;100.00
64551;BME280;74341;44.510;-123.270;2024-01-11T05:35:24;100696.66;;;1.56;100.00
64551;BME280;74341;44.510;-123.270;2024-01-11T05:37:53;100703.16;;;1.53;100.00
64551;BME280;74341;44.510;-123.270;2024-01-11T05:40:22;100697.25;;;1.48;100.00
64551;BME280;74341;44.510;-123.270;2024-01-11T05:42:49;100695.53;;;1.47;100.00
64551;BME280;74341;44.510;-123.270;2024-01-11T05:45:15;100697.50;;;1.45;100.00
64551;BME280;74341;44.510;-123.270;2024-01-11T05:47:45;100698.72;;;1.41;100.00
64551;BME280;74341;44.510;-123.270;2024-01-11T05:50:11;100709.72;;;1.38;100.00
64551;BME280;74341;44.510;-123.270;2024-01-11T05:52:38;100716.22;;;1.35;100.00
64551;BME280;74341;44.510;-123.270;2024-01-11T05:55:05;100719.00;;;1.33;100.00
64551;BME280;74341;44.510;-123.270;2024-01-11T05:57:32;100721.81;;;1.32;100.00
64551;BME280;74341;44.510;-123.270;2024-01-11T05:59:58;100713.72;;;1.32;100.00
64551;BME280;74341;44.510;-123.270;2024-01-11T06:02:25;100711.78;;;1.34;100.00
64551;BME280;74341;44.510;-123.270;2024-01-11T06:04:51;100717.06;;;1.36;100.00
64551;BME280;74341;44.510;-123.270;2024-01-11T06:07:18;100722.34;;;1.37;100.00
64551;BME280;74341;44.510;-123.270;2024-01-11T06:09:45;100724.91;;;1.39;100.00
64551;BME280;74341;44.510;-123.270;2024-01-11T06:12:11;100731.16;;;1.39;100.00
64551;BME280;74341;44.510;-123.270;2024-01-11T06:14:38;100743.78;;;1.39;100.00
64551;BME280;74341;44.510;-123.270;2024-01-11T06:17:06;100741.06;;;1.39;100.00
64551;BME280;74341;44.510;-123.270;2024-01-11T06:19:37;100742.88;;;1.38;100.00
64551;BME280;74341;44.510;-123.270;2024-01-11T06:22:04;100740.31;;;1.37;100.00
64551;BME280;74341;44.510;-123.270;2024-01-11T06:24:31;100747.75;;;1.33;100.00
64551;BME280;74341;44.510;-123.270;2024-01-11T06:26:57;100747.03;;;1.31;100.00
64551;BME280;74341;44.510;-123.270;2024-01-11T06:29:23;100753.50;;;1.28;100.00
64551;BME280;74341;44.510;-123.270;2024-01-11T06:31:50;100760.97;;;1.25;100.00
64551;BME280;74341;44.510;-123.270;2024-01-11T06:34:16;100766.47;;;1.23;100.00
64551;BME280;74341;44.510;-123.270;2024-01-11T06:36:43;100766.47;;;1.23;100.00
64551;BME280;74341;44.510;-123.270;2024-01-11T06:39:10;100777.97;;;1.25;100.00
64551;BME280;74341;44.510;-123.270;2024-01-11T06:41:36;100781.41;;;1.27;100.00
64551;BME280;74341;44.510;-123.270;2024-01-11T06:44:03;100772.25;;;1.30;100.00
64551;BME280;74341;44.510;-123.270;2024-01-11T06:46:29;100783.78;;;1.32;100.00
64551;BME280;74341;44.510;-123.270;2024-01-11T06:48:56;100798.72;;;1.36;100.00
64551;BME280;74341;44.510;-123.270;2024-01-11T06:51:23;100810.97;;;1.40;100.00
64551;BME280;74341;44.510;-123.270;2024-01-11T06:53:49;100808.06;;;1.43;100.00
64551;BME280;74341;44.510;-123.270;2024-01-11T06:56:17;100814.09;;;1.47;100.00
64551;BME280;74341;44.510;-123.270;2024-01-11T06:58:44;100814.72;;;1.50;100.00
64551;BME280;74341;44.510;-123.270;2024-01-11T07:01:11;100820.94;;;1.51;100.00
64551;BME280;74341;44.510;-123.270;2024-01-11T07:03:38;100816.56;;;1.50;100.00
64551;BME280;74341;44.510;-123.270;2024-01-11T07:06:05;100825.59;;;1.49;100.00
64551;BME280;74341;44.510;-123.270;2024-01-11T07:08:32;100832.94;;;1.47;100.00
64551;BME280;74341;44.510;-123.270;2024-01-11T07:11:01;100827.56;;;1.47;100.00
64551;BME280;74341;44.510;-123.270;2024-01-11T07:13:31;100833.94;;;1.46;100.00
64551;BME280;74341;44.510;-123.270;2024-01-11T07:15:58;100829.41;;;1.46;100.00
64551;BME280;74341;44.510;-123.270;2024-01-11T07:18:26;100821.31;;;1.46;100.00
64551;BME280;74341;44.510;-123.270;2024-01-11T07:20:53;100822.28;;;1.45;100.00
64551;BME280;74341;44.510;-123.270;2024-01-11T07:23:19;100817.00;;;1.44;100.00
64551;BME280;74341;44.510;-123.270;2024-01-11T07:25:46;100820.69;;;1.43;100.00
64551;BME280;74341;44.510;-123.270;2024-01-11T07:28:12;100825.97;;;1.44;100.00
64551;BME280;74341;44.510;-123.270;2024-01-11T07:30:39;100828.78;;;1.43;100.00
64551;BME280;74341;44.510;-123.270;2024-01-11T07:33:05;100833.31;;;1.42;100.00
64551;BME280;74341;44.510;-123.270;2024-01-11T07:35:32;100836.22;;;1.39;100.00
64551;BME280;74341;44.510;-123.270;2024-01-11T07:37:58;100838.16;;;1.37;100.00
64551;BME280;74341;44.510;-123.270;2024-01-11T07:40:25;100849.91;;;1.36;100.00
64551;BME280;74341;44.510;-123.270;2024-01-11T07:42:51;100850.66;;;1.38;100.00
64551;BME280;74341;44.510;-123.270;2024-01-11T07:45:17;100850.44;;;1.41;100.00
64551;BME280;74341;44.510;-123.270;2024-01-11T07:47:45;100828.56;;;1.46;100.00
64551;BME280;74341;44.510;-123.270;2024-01-11T07:50:11;100827.56;;;1.47;100.00
64551;BME280;74341;44.510;-123.270;2024-01-11T07:52:38;100839.31;;;1.46;100.00
64551;BME280;74341;44.510;-123.270;2024-01-11T07:55:08;100838.44;;;1.45;100.00
64551;BME280;74341;44.510;-123.270;2024-01-11T07:57:36;100850.44;;;1.41;100.00
64551;BME280;74341;44.510;-123.270;2024-01-11T08:00:06;100857.78;;;1.39;100.00
64551;BME280;74341;44.510;-123.270;2024-01-11T08:02:34;100855.94;;;1.40;100.00
64551;BME280;74341;44.510;-123.270;2024-01-11T08:05:00;100860.56;;;1.38;100.00
64551;BME280;74341;44.510;-123.270;2024-01-11T08:07:27;100866.94;;;1.37;100.00
64551;BME280;74341;44.510;-123.270;2024-01-11T08:09:54;100866.06;;;1.36;100.00
64551;BME280;74341;44.510;-123.270;2024-01-11T08:12:21;100875.00;;;1.37;100.00
64551;BME280;74341;44.510;-123.270;2024-01-11T08:14:48;100875.88;;;1.37;100.00
64551;BME280;74341;44.510;-123.270;2024-01-11T08:17:15;100878.59;;;1.37;100.00
64551;BME280;74341;44.510;-123.270;2024-01-11T08:19:41;100888.38;;;1.38;100.00
64551;BME280;74341;44.510;-123.270;2024-01-11T08:22:11;100897.44;;;1.37;100.00
64551;BME280;74341;44.510;-123.270;2024-01-11T08:24:38;100895.59;;;1.38;100.00
64551;BME280;74341;44.510;-123.270;2024-01-11T08:27:04;100898.28;;;1.38;100.00
64551;BME280;74341;44.510;-123.270;2024-01-11T08:29:32;100890.09;;;1.39;100.00
64551;BME280;74341;44.510;-123.270;2024-01-11T08:31:59;100882.75;;;1.41;100.00
64551;BME280;74341;44.510;-123.270;2024-01-11T08:34:27;100876.53;;;1.41;100.00
64551;BME280;74341;44.510;-123.270;2024-01-11T08:36:53;100873.94;;;1.39;100.00
64551;BME280;74341;44.510;-123.270;2024-01-11T08:39:20;100884.72;;;1.39;100.00
64551;BME280;74341;44.510;-123.270;2024-01-11T08:41:47;100885.69;;;1.38;100.00
64551;BME280;74341;44.510;-123.270;2024-01-11T08:44:14;100884.94;;;1.36;100.00
64551;BME280;74341;44.510;-123.270;2024-01-11T08:46:41;100888.38;;;1.38;100.00
64551;BME280;74341;44.510;-123.270;2024-01-11T08:49:07;100879.31;;;1.39;100.00
64551;BME280;74341;44.510;-123.270;2024-01-11T08:51:34;100883.72;;;1.40;100.00
64551;BME280;74341;44.510;-123.270;2024-01-11T08:54:01;100886.31;;;1.42;100.00
64551;BME280;74341;44.510;-123.270;2024-01-11T08:56:27;100895.28;;;1.42;100.00
64551;BME280;74341;44.510;-123.270;2024-01-11T08:58:54;100884.50;;;1.42;100.00
64551;BME280;74341;44.510;-123.270;2024-01-11T09:01:20;100880.81;;;1.43;100.00
64551;BME280;74341;44.510;-123.270;2024-01-11T09:03:48;100876.28;;;1.44;100.00
64551;BME280;74341;44.510;-123.270;2024-01-11T09:06:14;100878.75;;;1.47;100.00
64551;BME280;74341;44.510;-123.270;2024-01-11T09:08:40;100875.84;;;1.50;100.00
64551;BME280;74341;44.510;-123.270;2024-01-11T09:11:08;100881.13;;;1.51;100.00
64551;BME280;74341;44.510;-123.270;2024-01-11T09:13:36;100871.19;;;1.52;100.00
64551;BME280;74341;44.510;-123.270;2024-01-11T09:16:02;100880.22;;;1.51;100.00
64551;BME280;74341;44.510;-123.270;2024-01-11T09:18:29;100875.72;;;1.51;100.00
64551;BME280;74341;44.510;-123.270;2024-01-11T09:20:56;100875.00;;;1.49;100.00
64551;BME280;74341;44.510;-123.270;2024-01-11T09:23:23;100880.59;;;1.46;100.00
64551;BME280;74341;44.510;-123.270;2024-01-11T09:25:49;100885.25;;;1.44;100.00
64551;BME280;74341;44.510;-123.270;2024-01-11T09:28:15;100881.91;;;1.41;100.00
64551;BME280;74341;44.510;-123.270;2024-01-11T09:30:42;100872.19;;;1.38;100.00
64551;BME280;74341;44.510;-123.270;2024-01-11T09:33:08;100885.03;;;1.35;100.00
64551;BME280;74341;44.510;-123.270;2024-01-11T09:35:35;100890.69;;;1.31;100.00
64551;BME280;74341;44.510;-123.270;2024-01-11T09:38:01;100886.47;;;1.27;100.00
64551;BME280;74341;44.510;-123.270;2024-01-11T09:40:28;100890.25;;;1.25;100.00
64551;BME280;74341;44.510;-123.270;2024-01-11T09:42:54;100893.16;;;1.22;100.00
64551;BME280;74341;44.510;-123.270;2024-01-11T09:45:21;100885.28;;;1.19;100.00
64551;BME280;74341;44.510;-123.270;2024-01-11T09:47:48;100896.41;;;1.14;100.00
64551;BME280;74341;44.510;-123.270;2024-01-11T09:50:16;100901.81;;;1.14;100.00
64551;BME280;74341;44.510;-123.270;2024-01-11T09:52:49;100904.50;;;1.14;100.00
64551;BME280;74341;44.510;-123.270;2024-01-11T09:55:16;100910.63;;;1.16;100.00
64551;BME280;74341;44.510;-123.270;2024-01-11T09:57:47;100900.59;;;1.18;100.00
64551;BME280;74341;44.510;-123.270;2024-01-11T10:00:18;100909.53;;;1.19;100.00
64551;BME280;74341;44.510;-123.270;2024-01-11T10:02:48;100901.34;;;1.20;100.00
64551;BME280;74341;44.510;-123.270;2024-01-11T10:05:17;100898.75;;;1.19;100.00
64551;BME280;74341;44.510;-123.270;2024-01-11T10:07:44;100912.34;;;1.17;100.00
64551;BME280;74341;44.510;-123.270;2024-01-11T10:14:11;100900.28;;;1.10;100.00
64551;BME280;74341;44.510;-123.270;2024-01-11T10:16:38;100916.69;;;1.07;100.00
64551;BME280;74341;44.510;-123.270;2024-01-11T10:19:04;100932.84;;;1.07;100.00
64551;BME280;74341;44.510;-123.270;2024-01-11T10:21:30;100940.91;;;1.07;100.00
64551;BME280;74341;44.510;-123.270;2024-01-11T10:23:58;100942.41;;;1.11;100.00
64551;BME280;74341;44.510;-123.270;2024-01-11T10:26:25;100942.19;;;1.14;100.00
64551;BME280;74341;44.510;-123.270;2024-01-11T10:28:51;100933.03;;;1.17;100.00
64551;BME280;74341;44.510;-123.270;2024-01-11T10:31:18;100942.75;;;1.19;100.00
64551;BME280;74341;44.510;-123.270;2024-01-11T10:33:45;100939.16;;;1.19;100.00
64551;BME280;74341;44.510;-123.270;2024-01-11T10:36:11;100944.44;;;1.20;100.00
64551;BME280;74341;44.510;-123.270;2024-01-11T10:38:39;100949.63;;;1.23;100.00
64551;BME280;74341;44.510;-123.270;2024-01-11T10:41:06;100941.44;;;1.25;100.00
64551;BME280;74341;44.510;-123.270;2024-01-11T10:43:37;100947.78;;;1.24;100.00
64551;BME280;74341;44.510;-123.270;2024-01-11T10:46:05;100939.81;;;1.22;100.00
64551;BME280;74341;44.510;-123.270;2024-01-11T10:48:38;100946.06;;;1.23;100.00
64551;BME280;74341;44.510;-123.270;2024-01-11T10:51:08;100954.16;;;1.23;100.00
64551;BME280;74341;44.510;-123.270;2024-01-11T10:53:44;100952.31;;;1.23;100.00
64551;BME280;74341;44.510;-123.270;2024-01-11T10:56:12;100960.38;;;1.23;100.00
64551;BME280;74341;44.510;-123.270;2024-01-11T10:58:42;100965.78;;;1.23;100.00
64551;BME280;74341;44.510;-123.270;2024-01-11T11:01:11;100968.38;;;1.25;100.00
64551;BME280;74341;44.510;-123.270;2024-01-11T11:03:38;100974.59;;;1.25;100.00
64551;BME280;74341;44.510;-123.270;2024-01-11T11:06:06;100981.59;;;1.28;100.00
64551;BME280;74341;44.510;-123.270;2024-01-11T11:08:34;100997.75;;;1.28;100.00
64551;BME280;74341;44.510;-123.270;2024-01-11T11:11:03;100981.50;;;1.29;100.00
64551;BME280;74341;44.510;-123.270;2024-01-11T11:13:32;100984.06;;;1.31;100.00
64551;BME280;74341;44.510;-123.270;2024-01-11T11:16:00;100984.06;;;1.31;100.00
64551;BME280;74341;44.510;-123.270;2024-01-11T11:18:29;100991.31;;;1.30;100.00
64551;BME280;74341;44.510;-123.270;2024-01-11T11:20:56;100998.63;;;1.28;100.00
64551;BME280;74341;44.510;-123.270;2024-01-11T11:23:23;100990.56;;;1.28;100.00
64551;BME280;74341;44.510;-123.270;2024-01-11T11:25:49;100971.69;;;1.28;100.00
64551;BME280;74341;44.510;-123.270;2024-01-11T11:28:17;100996.69;;;1.30;100.00
64551;BME280;74341;44.510;-123.270;2024-01-11T11:30:47;100983.44;;;1.27;100.00
64551;BME280;74341;44.510;-123.270;2024-01-11T11:33:24;100985.47;;;1.24;100.00
64551;BME280;74341;44.510;-123.270;2024-01-11T11:35:57;100975.81;;;1.21;100.00
64551;BME280;74341;44.510;-123.270;2024-01-11T11:38:28;100984.00;;;1.20;100.00
64551;BME280;74341;44.510;-123.270;2024-01-11T11:40:56;100978.91;;;1.15;100.00
64551;BME280;74341;44.510;-123.270;2024-01-11T11:43:23;100977.22;;;1.14;100.00
64551;BME280;74341;44.510;-123.270;2024-01-11T11:45:52;100950.59;;;1.09;100.00
64551;BME280;74341;44.510;-123.270;2024-01-11T11:53:39;100952.13;;;0.88;100.00
64551;BME280;74341;44.510;-123.270;2024-01-11T11:56:06;100944.47;;;0.82;100.00
64551;BME280;74341;44.510;-123.270;2024-01-11T11:58:34;100952.03;;;0.77;100.00
64551;BME280;74341;44.510;-123.270;2024-01-11T12:01:01;100951.38;;;0.73;100.00
64551;BME280;74341;44.510;-123.270;2024-01-11T12:03:40;100930.25;;;0.67;100.00
64551;BME280;74341;44.510;-123.270;2024-01-11T12:06:08;100934.03;;;0.64;100.00
64551;BME280;74341;44.510;-123.270;2024-01-11T12:08:36;100920.88;;;0.60;100.00
64551;BME280;74341;44.510;-123.270;2024-01-11T12:11:03;100922.06;;;0.55;100.00
64551;BME280;74341;44.510;-123.270;2024-01-11T12:13:32;100916.91;;;0.52;100.00
64551;BME280;74341;44.510;-123.270;2024-01-11T12:15:58;100920.53;;;0.51;100.00
64551;BME280;74341;44.510;-123.270;2024-01-11T12:18:25;100926.91;;;0.50;100.00
64551;BME280;74341;44.510;-123.270;2024-01-11T12:20:51;100930.34;;;0.52;100.00
64551;BME280;74341;44.510;-123.270;2024-01-11T12:23:21;100946.28;;;0.55;100.00
64551;BME280;74341;44.510;-123.270;2024-01-11T12:25:47;100955.00;;;0.59;100.00
64551;BME280;74341;44.510;-123.270;2024-01-11T12:28:14;100978.91;;;0.64;100.00
64551;BME280;74341;44.510;-123.270;2024-01-11T12:30:40;100998.38;;;0.67;100.00